Havillah, Washington
Current Conditions -  °F | °C
As of 5:53 AM on Tuesday 21 Oct 2014 (Local Time) from KOMK Reporting Station
Overcast Overcast  
Wind Chill: 51°   Ceiling: 3200
Heat Index: 51°   Visibility: 10mi
Dew Point: 47°   Wind: 7mph
Humidity: 86%   Direction: 220°SW
Pressure: 29.82"   Gusts: NA
Location:  48.6708°N, 119.278°W
Report Text: KOMK 211253Z AUTO 22006KT 10SM FEW025 OVC032 11/08 A2982 RMK AO2 SLP100 T01060083
Loading
Personal Weather Stations






























Interactive Weather Map
Tropical Storm Tracking
New forecast layout! Learn more

10-Day Weather Forecast

Advertisements
Track Severe Weather on mobile